Alamo Heights, Texas
Current Conditions -  °F | °C
As of 11:51 PM on Wednesday 22 Oct 2014 (Local Time) from KSAT Reporting Station
Broken Clouds Broken Clouds  
Wind Chill: 74°   Ceiling: 13000
Heat Index: 74°   Visibility: 10mi
Dew Point: 57°   Wind: 6mph
Humidity: 55%   Direction: 90°E
Pressure: 30.1"   Gusts: NA
Location:  29.4797°N, 98.4508°W
Report Text: KSAT 230451Z 09005KT 10SM SCT075 BKN130 BKN220 23/14 A3010 RMK AO2 SLP174 T02330139
Loading
Personal Weather Stations






























Interactive Weather Map
Tropical Storm Tracking
New forecast layout! Learn more

10-Day Weather Forecast

Advertisements
Track Severe Weather on mobile